Portada
METAR-TAF:

METAR-TAF

Aeroports :

Abu Simbel, Egipte

latitud: 22-22-33N, longitud: 31-36-42E, altitud: 188 m

Observació

L'informe es va fer fa 1 hora i 13 minuts, a les 08:00 UTC
Vent 13 kt del Nord/Nord-Est
Temperatura 35°C
Humitat 18%
Pressió 1009 hPa
Visibilitat 10 km o més
sense núvols per sota de 1500 mi sense presència de cumulonimbus.

METAR: HEBL 190800Z 03013KT CAVOK 35/07 Q1009 NOSIG

Hora: 11:13 (09:13 UTC)

Pronòstic

L'informe es va fer fa 4 hores i 13 minuts, a les 05:00 UTC
Pronòstic vàlid del 19 a les 06 UTC al 20 a les 12 UTC
Vent 12 kt del Nord/Nord-Est
Visibilitat 10 km o més
sense núvols per sota de 1500 mi sense presència de cumulonimbus.

TAF: HEBL 190500Z 1906/2012 02012KT CAVOK

Observacions i pronòstics meteorològics de més de 4000 aeroports (METAR i TAF).

Les estacions disponibles són els punts grocs i vermells al mapa.

Posi el ratolí al punt desitjat per veure el nom de l'estació.

Feu clic per veure les observacions i els pronòstics meteorològics.

Per canviar el mapa: feu clic els botons verds amb una creu de color negre per apropar; al botó verd amb un guió per allunyar la imatge; o en les fletxes verdes per a mapes adjacents.


METAR-TAF: